createdAt,value
2023-05-11T00:01:47.188Z,91.90
2023-05-11T00:04:15.502Z,92.00
2023-05-11T00:12:38.064Z,92.00
2023-05-11T00:16:11.516Z,91.90
2023-05-11T00:19:19.967Z,92.00
2023-05-11T00:23:14.809Z,91.90
2023-05-11T00:25:33.053Z,92.00
2023-05-11T00:28:27.580Z,91.90
2023-05-11T00:31:13.621Z,91.90
2023-05-11T00:58:52.562Z,92.00
2023-05-11T01:01:41.737Z,92.00
2023-05-11T01:04:09.338Z,92.00
2023-05-11T01:07:01.761Z,92.00
2023-05-11T01:09:53.489Z,92.10
2023-05-11T01:13:15.424Z,92.00
2023-05-11T01:16:12.494Z,92.10
2023-05-11T01:19:00.852Z,92.00
2023-05-11T01:24:44.809Z,92.00
2023-05-11T01:27:31.194Z,92.00
2023-05-11T01:30:01.641Z,92.10
2023-05-11T01:32:34.362Z,92.10
2023-05-11T01:35:17.900Z,92.00
2023-05-11T01:38:01.177Z,92.10
2023-05-11T01:40:41.168Z,92.00
2023-05-11T01:43:21.088Z,92.00
2023-05-11T01:45:58.712Z,92.00
2023-05-11T01:48:45.832Z,92.00
2023-05-11T06:03:12.807Z,92.20
2023-05-11T11:12:22.813Z,92.40
2023-05-11T11:29:28.239Z,92.40
2023-05-11T11:31:55.179Z,92.40
2023-05-11T11:34:24.928Z,92.40
2023-05-11T11:37:49.266Z,92.40
2023-05-11T12:08:40.536Z,92.50
2023-05-11T12:11:35.083Z,92.50
2023-05-11T12:27:28.068Z,92.50
2023-05-11T12:30:04.418Z,92.40
2023-05-11T12:45:07.172Z,92.50
2023-05-11T12:58:19.024Z,92.50
2023-05-11T23:18:55.342Z,93.20
2023-05-11T23:21:22.295Z,93.20
2023-05-11T23:23:49.296Z,93.20
2023-05-11T23:26:16.188Z,93.20
2023-05-11T23:28:43.261Z,93.20
2023-05-11T23:31:10.262Z,93.20
2023-05-11T23:33:37.729Z,93.10
2023-05-11T23:36:04.921Z,93.20
2023-05-11T23:38:31.908Z,93.10
2023-05-11T23:40:59.347Z,93.10
2023-05-11T23:43:27.592Z,93.10
2023-05-11T23:45:57.456Z,93.10
2023-05-11T23:48:24.626Z,93.50
2023-05-11T23:50:51.681Z,93.10
2023-05-11T23:53:18.712Z,93.20
2023-05-11T23:55:48.582Z,93.10
2023-05-11T23:58:15.691Z,93.20
